createdAt,value
2022-09-01T00:01:39.427Z,19.69
2022-09-01T00:05:46.352Z,19.70
2022-09-01T00:09:49.978Z,19.68
2022-09-01T00:13:54.816Z,19.69
2022-09-01T00:17:58.178Z,19.66
2022-09-01T00:22:03.659Z,19.63
2022-09-01T00:26:07.572Z,19.55
2022-09-01T00:30:11.878Z,19.53
2022-09-01T00:34:15.213Z,19.48
2022-09-01T00:38:20.194Z,19.47
2022-09-01T00:42:24.508Z,19.44
2022-09-01T00:46:30.244Z,19.43
2022-09-01T00:50:34.199Z,19.43
2022-09-01T00:54:42.886Z,19.38
2022-09-01T00:58:46.633Z,19.36
2022-09-01T01:02:56.483Z,19.31
2022-09-01T01:07:03.171Z,19.30
2022-09-01T01:11:11.640Z,19.22
2022-09-01T01:15:15.302Z,19.18
2022-09-01T01:19:39.089Z,19.14
2022-09-01T01:23:51.095Z,19.10
2022-09-01T01:28:06.385Z,19.07
2022-09-01T01:32:13.119Z,19.05
2022-09-01T01:36:21.626Z,19.07
2022-09-01T01:40:26.139Z,19.05
2022-09-01T01:44:31.108Z,19.03
2022-09-01T01:48:39.795Z,19.02
2022-09-01T01:52:45.468Z,18.99
2022-09-01T01:56:49.830Z,18.99
2022-09-01T02:00:56.556Z,19.01
2022-09-01T02:05:00.537Z,18.96
2022-09-01T02:09:04.503Z,18.95
2022-09-01T02:13:08.258Z,18.93
2022-09-01T02:17:13.043Z,18.91
2022-09-01T02:21:19.809Z,18.85
2022-09-01T02:25:23.520Z,18.85
2022-09-01T02:29:28.896Z,18.85
2022-09-01T02:33:34.177Z,18.87
2022-09-01T02:37:41.387Z,18.83
2022-09-01T02:41:46.225Z,18.81
2022-09-01T02:45:54.458Z,18.80
2022-09-01T02:50:01.120Z,18.79
2022-09-01T02:54:06.433Z,18.79
2022-09-01T02:58:16.384Z,18.80
2022-09-01T03:02:19.701Z,18.80
2022-09-01T03:06:25.165Z,18.83
2022-09-01T03:10:32.791Z,18.83
2022-09-01T03:14:36.344Z,18.81
2022-09-01T03:18:40.506Z,18.80
2022-09-01T03:22:45.581Z,18.78
2022-09-01T03:26:50.397Z,18.81
2022-09-01T03:30:56.881Z,18.81
2022-09-01T03:35:00.392Z,18.80
2022-09-01T03:39:05.254Z,18.78
2022-09-01T03:43:10.940Z,18.77
2022-09-01T03:47:15.321Z,18.74
2022-09-01T03:51:20.717Z,18.73
2022-09-01T03:55:29.973Z,18.71
2022-09-01T03:59:34.119Z,18.70
2022-09-01T04:03:40.437Z,18.66
2022-09-01T04:07:48.686Z,18.66
2022-09-01T04:11:53.159Z,18.66
2022-09-01T04:15:58.311Z,18.66
2022-09-01T04:20:08.815Z,18.63
2022-09-01T04:24:14.844Z,18.59
2022-09-01T04:28:24.794Z,18.59
2022-09-01T04:32:28.561Z,18.56
2022-09-01T04:36:34.865Z,18.54
2022-09-01T04:40:40.318Z,18.52
2022-09-01T04:44:45.478Z,18.51
2022-09-01T04:48:49.376Z,18.50
2022-09-01T04:52:56.037Z,18.50
2022-09-01T04:57:06.898Z,18.51
2022-09-01T05:01:20.208Z,18.49
2022-09-01T05:05:24.287Z,18.47
2022-09-01T05:09:28.881Z,18.47
2022-09-01T05:13:40.374Z,18.49
2022-09-01T05:17:45.297Z,18.46
2022-09-01T05:21:49.867Z,18.46
2022-09-01T05:25:54.848Z,18.46
2022-09-01T05:30:00.823Z,18.51
2022-09-01T05:34:08.035Z,18.51
2022-09-01T05:38:15.872Z,18.53
2022-09-01T05:42:19.401Z,18.51
2022-09-01T05:46:25.721Z,18.50
2022-09-01T05:50:31.543Z,18.54
2022-09-01T05:54:35.765Z,18.51
2022-09-01T06:03:04.763Z,18.56
2022-09-01T06:07:16.270Z,18.62
2022-09-01T06:11:33.049Z,18.66
2022-09-01T06:15:39.105Z,18.74
2022-09-01T06:19:42.752Z,18.83
2022-09-01T06:23:51.168Z,18.91
2022-09-01T06:27:54.296Z,19.02
2022-09-01T06:31:59.894Z,19.10
2022-09-01T06:36:04.284Z,19.17
2022-09-01T06:40:16.917Z,19.28
2022-09-01T06:44:22.818Z,19.37
2022-09-01T06:48:35.955Z,19.42
2022-09-01T07:01:32.388Z,19.69
2022-09-01T07:10:23.593Z,19.88
2022-09-01T07:19:04.059Z,20.20
2022-09-01T07:23:12.045Z,20.39
2022-09-01T07:27:16.258Z,20.61
2022-09-01T07:44:44.166Z,21.22
2022-09-01T07:53:34.387Z,21.58
2022-09-01T07:57:38.059Z,21.67
2022-09-01T08:01:43.234Z,21.73
2022-09-01T08:05:51.309Z,21.84
2022-09-01T08:09:56.114Z,21.92
2022-09-01T08:14:05.174Z,22.06
2022-09-01T08:18:09.720Z,22.14
2022-09-01T08:22:14.665Z,22.23
2022-09-01T08:26:28.820Z,22.29
2022-09-01T08:30:33.594Z,22.48
2022-09-01T08:34:37.659Z,22.56
2022-09-01T08:38:43.255Z,22.64
2022-09-01T08:42:56.763Z,22.76
2022-09-01T08:47:04.885Z,22.83
2022-09-01T08:51:20.736Z,22.87
2022-09-01T08:55:42.939Z,22.90
2022-09-01T08:59:46.903Z,22.98
2022-09-01T09:04:16.959Z,23.06
2022-09-01T09:08:41.240Z,23.21
2022-09-01T09:12:56.716Z,23.33
2022-09-01T09:17:00.748Z,23.46
2022-09-01T09:21:13.075Z,23.58
2022-09-01T09:25:19.622Z,23.67
2022-09-01T09:29:24.655Z,23.76
2022-09-01T09:33:51.658Z,23.88
2022-09-01T09:37:56.235Z,24.06
2022-09-01T09:42:09.512Z,24.03
2022-09-01T09:46:26.699Z,24.10
2022-09-01T09:50:32.455Z,24.12
2022-09-01T09:54:36.792Z,24.14
2022-09-01T09:58:42.895Z,24.21
2022-09-01T10:02:53.313Z,24.22
2022-09-01T10:06:56.388Z,24.28
2022-09-01T10:10:59.692Z,24.30
2022-09-01T10:15:11.666Z,24.44
2022-09-01T10:19:17.102Z,24.50
2022-09-01T10:23:20.626Z,24.54
2022-09-01T10:27:27.915Z,24.57
2022-09-01T10:31:36.023Z,24.65
2022-09-01T10:35:45.762Z,24.67
2022-09-01T10:40:12.181Z,24.65
2022-09-01T10:44:21.215Z,24.68
2022-09-01T10:48:32.054Z,24.71
2022-09-01T10:53:04.977Z,24.73
2022-09-01T10:57:12.767Z,24.84
2022-09-01T11:01:34.998Z,24.85
2022-09-01T11:06:11.989Z,24.70
2022-09-01T11:10:34.986Z,24.57
2022-09-01T11:14:50.198Z,24.52
2022-09-01T11:18:54.031Z,24.69
2022-09-01T11:23:03.826Z,24.87
2022-09-01T11:27:09.988Z,24.87
2022-09-01T11:31:26.950Z,24.73
2022-09-01T11:35:31.179Z,24.71
2022-09-01T11:39:40.673Z,24.79
2022-09-01T11:43:45.174Z,24.64
2022-09-01T11:47:50.872Z,24.67
2022-09-01T11:51:54.555Z,24.82
2022-09-01T11:56:17.508Z,24.99
2022-09-01T12:00:28.732Z,25.08
2022-09-01T12:04:36.322Z,25.16
2022-09-01T12:08:41.637Z,24.97
2022-09-01T12:12:44.831Z,24.91
2022-09-01T12:16:58.629Z,24.98
2022-09-01T12:21:03.980Z,25.09
2022-09-01T12:25:34.693Z,25.22
2022-09-01T12:29:39.235Z,25.24
2022-09-01T12:33:45.844Z,25.27
2022-09-01T12:37:50.553Z,25.32
2022-09-01T12:42:06.564Z,25.24
2022-09-01T12:46:17.341Z,25.05
2022-09-01T12:50:43.925Z,24.90
2022-09-01T12:54:47.669Z,24.91
2022-09-01T12:58:53.982Z,25.06
2022-09-01T13:03:14.849Z,25.17
2022-09-01T13:07:19.358Z,25.25
2022-09-01T13:11:22.680Z,25.29
2022-09-01T13:15:26.921Z,25.30
2022-09-01T13:19:30.592Z,25.19
2022-09-01T13:23:35.464Z,25.24
2022-09-01T13:27:38.703Z,25.25
2022-09-01T13:32:16.633Z,25.34
2022-09-01T13:40:33.065Z,25.15
2022-09-01T13:44:36.957Z,24.95
2022-09-01T13:53:03.878Z,24.93
2022-09-01T13:57:08.800Z,24.95
2022-09-01T14:01:13.757Z,25.02
2022-09-01T14:05:17.808Z,25.11
2022-09-01T14:09:20.967Z,25.16
2022-09-01T14:13:26.605Z,25.15
2022-09-01T14:17:29.851Z,25.05
2022-09-01T14:21:33.419Z,24.91
2022-09-01T14:25:37.743Z,24.86
2022-09-01T14:33:45.374Z,24.50
2022-09-01T14:37:48.910Z,24.41
2022-09-01T14:41:52.525Z,24.41
2022-09-01T14:46:07.265Z,24.40
2022-09-01T14:50:10.939Z,24.28
2022-09-01T14:54:14.083Z,24.22
2022-09-01T14:58:17.213Z,24.19
2022-09-01T15:02:22.053Z,24.18
2022-09-01T15:06:25.714Z,24.12
2022-09-01T15:10:29.617Z,24.11
2022-09-01T15:14:33.423Z,24.09
2022-09-01T15:18:38.163Z,24.04
2022-09-01T15:22:42.019Z,24.00
2022-09-01T15:26:46.794Z,23.99
2022-09-01T15:30:51.122Z,23.92
2022-09-01T15:34:59.009Z,23.88
2022-09-01T15:39:02.311Z,23.81
2022-09-01T15:43:06.863Z,23.78
2022-09-01T15:47:09.953Z,23.80
2022-09-01T15:51:34.874Z,23.77
2022-09-01T15:55:43.956Z,23.70
2022-09-01T15:59:46.999Z,23.66
2022-09-01T16:03:50.290Z,23.59
2022-09-01T16:12:04.287Z,23.37
2022-09-01T16:16:22.141Z,23.30
2022-09-01T16:20:27.492Z,23.26
2022-09-01T16:24:34.325Z,23.27
2022-09-01T16:28:39.054Z,23.22
2022-09-01T16:32:45.943Z,23.18
2022-09-01T16:36:57.781Z,23.15
2022-09-01T16:41:09.354Z,23.16
2022-09-01T16:45:21.415Z,23.13
2022-09-01T16:49:34.174Z,23.04
2022-09-01T16:53:53.430Z,22.94
2022-09-01T16:58:04.872Z,22.87
2022-09-01T17:02:22.299Z,22.81
2022-09-01T17:06:31.853Z,22.74
2022-09-01T17:10:42.443Z,22.66
2022-09-01T17:14:55.239Z,22.61
2022-09-01T17:19:00.349Z,22.57
2022-09-01T17:23:08.867Z,22.50
2022-09-01T17:27:19.554Z,22.41
2022-09-01T17:31:35.033Z,22.37
2022-09-01T17:35:43.563Z,22.28
2022-09-01T17:39:55.415Z,22.22
2022-09-01T17:44:12.737Z,22.16
2022-09-01T17:48:20.769Z,22.07
2022-09-01T17:52:40.003Z,21.96
2022-09-01T17:56:53.519Z,21.89
2022-09-01T18:01:02.426Z,21.80
2022-09-01T18:05:12.659Z,21.74
2022-09-01T18:09:19.021Z,21.63
2022-09-01T18:13:51.428Z,21.54
2022-09-01T18:17:55.339Z,21.45
2022-09-01T18:22:04.340Z,21.39
2022-09-01T18:26:16.136Z,21.32
2022-09-01T18:30:42.644Z,21.25
2022-09-01T18:35:02.204Z,21.16
2022-09-01T18:39:13.115Z,21.09
2022-09-01T18:43:30.192Z,21.05
2022-09-01T18:47:35.403Z,21.00
2022-09-01T18:52:00.893Z,20.92
2022-09-01T18:56:15.053Z,20.82
2022-09-01T19:00:20.336Z,20.72
2022-09-01T19:04:29.580Z,20.68
2022-09-01T19:08:45.495Z,20.69
2022-09-01T19:12:57.340Z,20.64
2022-09-01T19:17:16.432Z,20.59
2022-09-01T19:21:22.818Z,20.56
2022-09-01T19:25:36.863Z,20.47
2022-09-01T19:29:47.934Z,20.42
2022-09-01T19:33:56.116Z,20.39
2022-09-01T19:37:59.215Z,20.38
2022-09-01T19:42:07.751Z,20.30
2022-09-01T19:46:25.833Z,20.26
2022-09-01T19:50:35.924Z,20.21
2022-09-01T19:54:51.968Z,20.18
2022-09-01T19:59:02.324Z,20.13
2022-09-01T20:03:12.590Z,20.06
2022-09-01T20:07:28.946Z,19.99
2022-09-01T20:11:44.728Z,19.90
2022-09-01T20:15:55.394Z,19.85
2022-09-01T20:20:07.731Z,19.78
2022-09-01T20:24:19.750Z,19.73
2022-09-01T20:28:29.620Z,19.70
2022-09-01T20:32:41.087Z,19.62
2022-09-01T20:36:51.633Z,19.56
2022-09-01T20:40:57.964Z,19.51
2022-09-01T20:45:06.616Z,19.47
2022-09-01T20:49:10.577Z,19.41
2022-09-01T20:53:27.663Z,19.33
2022-09-01T20:57:41.576Z,19.31
2022-09-01T21:01:50.206Z,19.27
2022-09-01T21:05:59.669Z,19.19
2022-09-01T21:10:11.174Z,19.10
2022-09-01T21:14:40.056Z,19.00
2022-09-01T21:18:53.988Z,18.95
2022-09-01T21:22:57.757Z,18.92
2022-09-01T21:27:07.596Z,18.86
2022-09-01T21:31:10.781Z,18.79
2022-09-01T21:35:16.787Z,18.72
2022-09-01T21:39:19.957Z,18.70
2022-09-01T21:43:29.462Z,18.69
2022-09-01T21:47:33.845Z,18.65
2022-09-01T21:51:36.968Z,18.59
2022-09-01T21:55:41.099Z,18.55
2022-09-01T21:59:45.590Z,18.51
2022-09-01T22:03:48.846Z,18.44
2022-09-01T22:07:51.920Z,18.40
2022-09-01T22:11:54.943Z,18.38
2022-09-01T22:15:59.612Z,18.32
2022-09-01T22:20:03.337Z,18.31
2022-09-01T22:24:07.422Z,18.28
2022-09-01T22:28:11.475Z,18.26
2022-09-01T22:32:15.914Z,18.21
2022-09-01T22:36:24.772Z,18.19
2022-09-01T22:40:27.983Z,18.14
2022-09-01T22:44:31.603Z,18.11
2022-09-01T22:48:36.500Z,18.08
2022-09-01T22:52:40.172Z,18.02
2022-09-01T22:56:44.095Z,17.98
2022-09-01T23:00:50.796Z,17.94
2022-09-01T23:04:55.397Z,17.92
2022-09-01T23:09:00.809Z,17.87
2022-09-01T23:13:03.927Z,17.85
2022-09-01T23:17:06.996Z,17.84
2022-09-01T23:21:14.122Z,17.80
2022-09-01T23:25:17.769Z,17.75
2022-09-01T23:29:21.328Z,17.70
2022-09-01T23:33:25.834Z,17.67
2022-09-01T23:37:30.562Z,17.66
2022-09-01T23:41:36.335Z,17.60
2022-09-01T23:45:41.034Z,17.59
2022-09-01T23:49:44.149Z,17.56
2022-09-01T23:53:49.558Z,17.52
2022-09-01T23:57:52.630Z,17.46
